createdAt,value
2023-02-20T00:02:55.047Z,2.30
2023-02-20T00:05:56.351Z,2.60
2023-02-20T00:08:57.631Z,2.95
2023-02-20T00:11:58.937Z,2.60
2023-02-20T00:15:00.236Z,3.10
2023-02-20T00:18:01.550Z,2.80
2023-02-20T00:21:02.842Z,2.60
2023-02-20T00:24:04.145Z,2.30
2023-02-20T00:27:05.427Z,2.67
2023-02-20T00:30:06.738Z,2.40
2023-02-20T00:33:08.058Z,2.03
2023-02-20T00:36:09.385Z,2.75
2023-02-20T00:39:10.703Z,2.33
2023-02-20T00:42:11.991Z,3.25
2023-02-20T00:45:13.284Z,2.38
2023-02-20T00:48:14.600Z,2.57
2023-02-20T00:51:15.911Z,1.98
2023-02-20T00:54:17.217Z,2.20
2023-02-20T00:57:18.566Z,2.17
2023-02-20T01:00:19.891Z,2.13
2023-02-20T01:03:21.194Z,2.20
2023-02-20T01:06:22.507Z,2.05
2023-02-20T01:09:23.804Z,1.90
2023-02-20T01:12:25.111Z,2.42
2023-02-20T01:15:26.413Z,2.45
2023-02-20T01:18:27.711Z,2.23
2023-02-20T01:21:29.011Z,2.03
2023-02-20T01:24:30.325Z,2.67
2023-02-20T01:27:31.650Z,2.00
2023-02-20T01:30:32.988Z,1.98
2023-02-20T01:33:34.327Z,2.30
2023-02-20T01:36:35.642Z,2.42
2023-02-20T01:39:36.958Z,1.85
2023-02-20T01:42:38.296Z,2.30
2023-02-20T01:45:39.579Z,2.28
2023-02-20T01:48:40.868Z,2.20
2023-02-20T01:51:42.182Z,2.08
2023-02-20T01:54:43.529Z,2.08
2023-02-20T01:57:44.836Z,1.80
2023-02-20T02:00:46.164Z,2.28
2023-02-20T02:03:47.491Z,2.40
2023-02-20T02:06:48.801Z,2.38
2023-02-20T02:09:50.125Z,1.70
2023-02-20T02:12:51.421Z,1.95
2023-02-20T02:15:52.797Z,2.45
2023-02-20T02:18:54.207Z,2.20
2023-02-20T02:21:55.517Z,2.40
2023-02-20T02:24:56.803Z,1.88
2023-02-20T02:27:58.103Z,1.88
2023-02-20T02:30:59.470Z,2.10
2023-02-20T02:34:00.797Z,3.17
2023-02-20T02:37:02.104Z,3.08
2023-02-20T02:40:03.412Z,2.10
2023-02-20T02:43:04.713Z,2.33
2023-02-20T02:46:06.087Z,2.40
2023-02-20T02:49:08.618Z,2.50
2023-02-20T02:52:09.923Z,2.83
2023-02-20T02:55:11.223Z,2.35
2023-02-20T02:58:12.537Z,2.22
2023-02-20T03:01:13.883Z,2.75
2023-02-20T03:04:15.186Z,1.63
2023-02-20T03:07:16.493Z,2.55
2023-02-20T03:10:17.774Z,2.10
2023-02-20T03:13:19.088Z,2.17
2023-02-20T03:16:20.409Z,2.30
2023-02-20T03:19:21.723Z,2.10
2023-02-20T03:22:23.015Z,2.80
2023-02-20T03:25:24.310Z,2.70
2023-02-20T03:28:25.619Z,2.42
2023-02-20T03:31:27.041Z,2.58
2023-02-20T03:34:28.414Z,2.20
2023-02-20T03:37:29.709Z,2.17
2023-02-20T03:40:31.015Z,2.33
2023-02-20T03:43:32.321Z,2.17
2023-02-20T03:46:33.648Z,2.20
2023-02-20T03:49:34.948Z,2.00
2023-02-20T03:52:36.257Z,2.42
2023-02-20T03:55:37.534Z,2.58
2023-02-20T03:58:38.868Z,2.10
2023-02-20T04:01:40.151Z,3.75
2023-02-20T04:04:41.466Z,1.80
2023-02-20T04:07:42.861Z,2.03
2023-02-20T04:10:44.184Z,2.20
2023-02-20T04:13:45.498Z,2.30
2023-02-20T04:16:46.812Z,2.58
2023-02-20T04:19:48.405Z,2.30
2023-02-20T04:22:49.779Z,1.83
2023-02-20T04:25:51.094Z,2.70
2023-02-20T04:28:52.408Z,2.10
2023-02-20T04:31:53.728Z,2.42
2023-02-20T04:34:55.079Z,2.77
2023-02-20T04:37:56.383Z,2.05
2023-02-20T04:40:57.752Z,2.78
2023-02-20T04:43:59.025Z,2.50
2023-02-20T04:47:00.438Z,2.25
2023-02-20T04:50:01.746Z,2.20
2023-02-20T04:53:03.085Z,2.13
2023-02-20T04:56:04.375Z,2.78
2023-02-20T04:59:05.694Z,3.05
2023-02-20T05:02:09.768Z,2.10
2023-02-20T05:05:11.418Z,3.23
2023-02-20T05:08:12.727Z,2.63
2023-02-20T05:11:14.029Z,3.15
2023-02-20T05:14:15.354Z,2.17
2023-02-20T05:17:16.688Z,2.63
2023-02-20T05:20:17.973Z,2.67
2023-02-20T05:23:19.280Z,2.55
2023-02-20T05:26:20.608Z,2.65
2023-02-20T05:29:22.022Z,2.70
2023-02-20T05:32:23.319Z,3.50
2023-02-20T05:35:24.647Z,2.97
2023-02-20T05:38:25.933Z,3.83
2023-02-20T05:41:27.231Z,4.25
2023-02-20T05:44:28.536Z,3.30
2023-02-20T05:47:29.845Z,5.30
2023-02-20T05:50:31.141Z,3.40
2023-02-20T05:53:32.469Z,3.55
2023-02-20T05:56:33.769Z,4.55
2023-02-20T05:59:35.096Z,3.22
2023-02-20T06:02:36.392Z,4.78
2023-02-20T06:05:37.728Z,3.40
2023-02-20T06:08:39.012Z,4.22
2023-02-20T06:11:40.332Z,4.28
2023-02-20T06:14:41.638Z,3.20
2023-02-20T06:17:44.742Z,4.13
2023-02-20T06:20:46.194Z,5.50
2023-02-20T06:23:47.563Z,3.55
2023-02-20T06:26:48.877Z,5.88
2023-02-20T06:29:50.192Z,4.35
2023-02-20T06:32:51.481Z,3.58
2023-02-20T06:35:52.783Z,3.80
2023-02-20T06:38:56.608Z,7.65
2023-02-20T06:41:59.249Z,5.18
2023-02-20T06:45:00.539Z,4.88
2023-02-20T06:48:01.853Z,7.45
2023-02-20T06:51:03.169Z,10.43
2023-02-20T06:54:04.460Z,9.68
2023-02-20T06:57:05.900Z,15.23
2023-02-20T07:00:07.212Z,9.05
2023-02-20T07:03:08.520Z,11.85
2023-02-20T07:06:09.957Z,14.30
2023-02-20T07:09:11.374Z,15.40
2023-02-20T07:12:12.665Z,21.90
2023-02-20T07:15:13.966Z,25.90
2023-02-20T07:18:15.272Z,11.45
2023-02-20T07:21:16.572Z,13.03
2023-02-20T07:24:17.891Z,14.93
2023-02-20T07:27:19.212Z,10.70
2023-02-20T07:30:20.572Z,17.92
2023-02-20T07:33:21.904Z,8.90
2023-02-20T07:36:23.216Z,20.47
2023-02-20T07:39:24.518Z,17.20
2023-02-20T07:42:25.814Z,16.45
2023-02-20T07:45:27.195Z,14.95
2023-02-20T07:48:28.504Z,16.35
2023-02-20T07:51:29.840Z,34.23
2023-02-20T07:54:31.279Z,13.20
2023-02-20T07:57:32.604Z,19.73
2023-02-20T08:00:33.896Z,24.90
2023-02-20T08:03:35.192Z,20.38
2023-02-20T08:06:36.501Z,12.97
2023-02-20T08:09:37.803Z,13.73
2023-02-20T08:12:39.123Z,12.23
2023-02-20T08:15:40.434Z,14.82
2023-02-20T08:18:41.797Z,11.52
2023-02-20T08:21:43.080Z,11.70
2023-02-20T08:24:44.399Z,14.57
2023-02-20T08:27:45.731Z,13.43
2023-02-20T08:30:47.066Z,21.20
2023-02-20T08:33:48.370Z,11.35
2023-02-20T08:36:49.670Z,17.77
2023-02-20T08:39:50.982Z,12.88
2023-02-20T08:42:52.344Z,13.27
2023-02-20T08:45:53.788Z,22.55
2023-02-20T08:48:55.194Z,16.02
2023-02-20T08:51:56.511Z,19.53
2023-02-20T08:54:57.848Z,31.70
2023-02-20T08:57:59.169Z,22.70
2023-02-20T09:01:00.496Z,30.85
2023-02-20T09:04:01.829Z,23.73
2023-02-20T09:07:03.130Z,20.47
2023-02-20T09:10:04.431Z,19.73
2023-02-20T09:13:05.815Z,13.73
2023-02-20T09:16:07.134Z,21.05
2023-02-20T09:19:08.449Z,13.13
2023-02-20T09:22:09.750Z,19.40
2023-02-20T09:25:11.068Z,19.85
2023-02-20T09:28:12.372Z,15.18
2023-02-20T09:31:13.662Z,14.93
2023-02-20T09:34:14.980Z,16.55
2023-02-20T09:37:16.277Z,13.73
2023-02-20T09:40:17.602Z,28.52
2023-02-20T09:43:18.962Z,17.95
2023-02-20T09:46:20.295Z,11.48
2023-02-20T09:49:21.628Z,15.60
2023-02-20T09:52:22.945Z,32.67
2023-02-20T09:55:24.280Z,23.10
2023-02-20T09:58:25.574Z,23.13
2023-02-20T10:01:26.884Z,72.57
2023-02-20T10:04:28.265Z,23.38
2023-02-20T10:07:29.596Z,20.13
2023-02-20T10:10:30.922Z,26.42
2023-02-20T10:13:32.217Z,8.52
2023-02-20T10:16:33.537Z,8.93
2023-02-20T10:19:34.839Z,8.82
2023-02-20T10:22:36.201Z,6.80
2023-02-20T10:25:37.572Z,7.22
2023-02-20T10:28:38.881Z,16.83
2023-02-20T10:31:40.272Z,21.35
2023-02-20T10:34:41.620Z,23.90
2023-02-20T10:37:47.857Z,18.97
2023-02-20T10:40:49.575Z,17.27
2023-02-20T10:43:50.907Z,13.77
2023-02-20T10:46:52.227Z,13.32
2023-02-20T10:49:53.550Z,18.77
2023-02-20T10:52:54.851Z,14.10
2023-02-20T10:55:56.230Z,18.30
2023-02-20T10:58:57.554Z,20.50
2023-02-20T11:01:59.058Z,21.85
2023-02-20T11:05:00.400Z,11.63
2023-02-20T11:08:01.754Z,15.50
2023-02-20T11:11:03.111Z,17.50
2023-02-20T11:14:04.446Z,11.10
2023-02-20T11:17:05.798Z,19.90
2023-02-20T11:20:07.130Z,19.00
2023-02-20T11:23:08.480Z,19.27
2023-02-20T11:26:09.767Z,17.92
2023-02-20T11:29:12.573Z,9.13
2023-02-20T11:32:15.342Z,17.95
2023-02-20T11:35:16.727Z,9.98
2023-02-20T11:38:18.077Z,31.80
2023-02-20T11:41:19.429Z,16.48
2023-02-20T11:44:20.778Z,94.10
2023-02-20T11:47:22.171Z,45.33
2023-02-20T11:50:23.603Z,26.00
2023-02-20T11:53:24.936Z,26.90
2023-02-20T11:56:26.261Z,20.42
2023-02-20T11:59:27.609Z,11.77
2023-02-20T12:02:28.972Z,18.85
2023-02-20T12:05:30.396Z,11.95
2023-02-20T12:08:31.715Z,13.60
2023-02-20T12:11:33.034Z,15.20
2023-02-20T12:14:34.352Z,15.75
2023-02-20T12:17:35.678Z,13.82
2023-02-20T12:20:36.972Z,12.27
2023-02-20T12:23:38.312Z,11.73
2023-02-20T12:26:39.623Z,16.85
2023-02-20T12:29:40.940Z,17.98
2023-02-20T12:32:42.255Z,19.55
2023-02-20T12:35:43.555Z,18.65
2023-02-20T12:38:44.845Z,25.60
2023-02-20T12:41:46.379Z,15.85
2023-02-20T12:44:47.688Z,18.33
2023-02-20T12:47:50.721Z,15.48
2023-02-20T12:50:52.840Z,19.05
2023-02-20T12:53:54.148Z,24.40
2023-02-20T12:56:55.448Z,18.88
2023-02-20T12:59:56.794Z,11.48
2023-02-20T13:02:58.124Z,23.73
2023-02-20T13:05:59.457Z,28.58
2023-02-20T13:09:00.843Z,18.40
2023-02-20T13:12:02.154Z,33.08
2023-02-20T13:15:03.466Z,37.58
2023-02-20T13:18:04.808Z,39.38
2023-02-20T13:21:06.140Z,34.00
2023-02-20T13:24:07.451Z,33.77
2023-02-20T13:27:08.772Z,28.40
2023-02-20T13:30:10.158Z,32.55
2023-02-20T13:33:11.509Z,25.77
2023-02-20T13:36:13.182Z,27.15
2023-02-20T13:39:14.695Z,25.23
2023-02-20T13:42:15.989Z,25.58
2023-02-20T13:45:17.324Z,30.08
2023-02-20T13:48:18.628Z,38.55
2023-02-20T13:51:19.945Z,31.50
2023-02-20T13:54:21.233Z,35.97
2023-02-20T13:57:22.595Z,25.85
2023-02-20T14:00:23.925Z,25.10
2023-02-20T14:03:25.262Z,25.38
2023-02-20T14:06:26.649Z,22.90
2023-02-20T14:09:27.936Z,19.70
2023-02-20T14:12:29.248Z,30.38
2023-02-20T14:15:30.567Z,23.02
2023-02-20T14:18:31.902Z,17.83
2023-02-20T14:21:33.222Z,31.88
2023-02-20T14:24:34.567Z,13.20
2023-02-20T14:27:35.893Z,22.58
2023-02-20T14:30:37.274Z,21.33
2023-02-20T14:33:38.689Z,25.15
2023-02-20T14:36:40.040Z,21.00
2023-02-20T14:39:41.380Z,15.53
2023-02-20T14:42:42.675Z,16.15
2023-02-20T14:45:44.023Z,23.33
2023-02-20T14:48:45.369Z,22.88
2023-02-20T14:51:46.682Z,18.55
2023-02-20T14:54:48.144Z,19.60
2023-02-20T14:57:49.564Z,20.65
2023-02-20T15:00:50.880Z,13.45
2023-02-20T15:03:52.234Z,20.70
2023-02-20T15:06:53.568Z,32.75
2023-02-20T15:09:54.881Z,20.80
2023-02-20T15:12:56.173Z,14.50
2023-02-20T15:15:57.563Z,17.08
2023-02-20T15:18:58.882Z,13.13
2023-02-20T15:22:00.328Z,14.07
2023-02-20T15:25:01.632Z,33.53
2023-02-20T15:28:03.036Z,25.75
2023-02-20T15:31:04.455Z,29.73
2023-02-20T15:34:05.988Z,27.85
2023-02-20T15:37:07.478Z,29.23
2023-02-20T15:40:08.920Z,44.97
2023-02-20T15:43:23.978Z,41.88
2023-02-20T15:46:31.542Z,37.60
2023-02-20T15:49:32.895Z,37.78
2023-02-20T15:52:34.293Z,39.95
2023-02-20T15:55:35.688Z,37.77
2023-02-20T15:58:37.003Z,42.83
2023-02-20T16:01:38.355Z,41.00
2023-02-20T16:04:39.665Z,210.55
2023-02-20T16:07:41.001Z,115.93
2023-02-20T16:10:42.322Z,66.67
2023-02-20T16:13:44.010Z,61.55
2023-02-20T16:16:45.474Z,64.00
2023-02-20T16:19:47.336Z,45.72
2023-02-20T16:22:48.724Z,47.33
2023-02-20T16:25:50.425Z,66.70
2023-02-20T16:28:51.972Z,45.70
2023-02-20T16:31:53.758Z,43.88
2023-02-20T16:34:55.250Z,36.85
2023-02-20T16:37:56.910Z,42.53
2023-02-20T16:40:58.315Z,34.80
2023-02-20T16:44:01.665Z,24.13
2023-02-20T16:47:04.871Z,27.90
2023-02-20T16:50:06.231Z,27.77
2023-02-20T16:53:11.210Z,18.35
2023-02-20T16:56:13.301Z,26.50
2023-02-20T16:59:15.134Z,23.67
2023-02-20T17:02:16.609Z,30.20
2023-02-20T17:05:18.466Z,26.83
2023-02-20T17:08:19.933Z,23.75
2023-02-20T17:11:21.720Z,22.63
2023-02-20T17:14:23.605Z,21.42
2023-02-20T17:17:25.021Z,21.40
2023-02-20T17:20:26.545Z,23.10
2023-02-20T17:23:27.960Z,21.13
2023-02-20T17:26:29.408Z,23.97
2023-02-20T17:29:31.165Z,22.55
2023-02-20T17:32:33.411Z,20.70
2023-02-20T17:35:35.259Z,20.40
2023-02-20T17:38:37.120Z,22.45
2023-02-20T17:41:38.992Z,19.23
2023-02-20T17:44:40.399Z,19.55
2023-02-20T17:47:42.206Z,23.63
2023-02-20T17:50:43.872Z,18.33
2023-02-20T17:53:46.398Z,18.13
2023-02-20T17:56:48.136Z,17.03
2023-02-20T17:59:49.938Z,16.30
2023-02-20T18:02:51.806Z,16.80
2023-02-20T18:05:54.146Z,14.75
2023-02-20T18:08:56.023Z,14.35
2023-02-20T18:15:13.211Z,14.60
2023-02-20T18:18:15.101Z,15.30
2023-02-20T18:21:17.027Z,13.43
2023-02-20T18:24:18.939Z,12.82
2023-02-20T18:27:20.765Z,17.87
2023-02-20T18:30:22.648Z,14.73
2023-02-20T18:33:24.550Z,15.25
2023-02-20T18:36:26.737Z,13.10
2023-02-20T18:39:28.183Z,11.35
2023-02-20T18:42:29.939Z,11.70
2023-02-20T18:45:31.780Z,12.40
2023-02-20T18:48:36.092Z,14.30
2023-02-20T18:51:37.949Z,11.20
2023-02-20T18:54:39.774Z,13.57
2023-02-20T18:57:41.599Z,14.47
2023-02-20T19:00:43.387Z,13.02
2023-02-20T19:03:46.260Z,11.52
2023-02-20T19:06:48.225Z,11.82
2023-02-20T19:09:50.093Z,11.52
2023-02-20T19:12:54.582Z,13.20
2023-02-20T19:15:56.392Z,10.95
2023-02-20T19:18:58.312Z,12.18
2023-02-20T19:21:59.741Z,11.15
2023-02-20T19:25:01.600Z,11.00
2023-02-20T19:28:03.503Z,10.27
2023-02-20T19:31:05.293Z,13.13
2023-02-20T19:34:07.779Z,9.07
2023-02-20T19:37:09.655Z,10.07
2023-02-20T19:40:14.785Z,11.82
2023-02-20T19:43:17.143Z,10.67
2023-02-20T19:46:20.602Z,11.27
2023-02-20T19:49:23.487Z,11.77
2023-02-20T19:52:26.624Z,9.65
2023-02-20T19:55:28.057Z,10.45
2023-02-20T19:58:29.785Z,9.40
2023-02-20T20:01:31.738Z,9.35
2023-02-20T20:04:33.665Z,10.30
2023-02-20T20:07:36.116Z,10.88
2023-02-20T20:10:37.511Z,12.07
2023-02-20T20:13:39.390Z,11.70
2023-02-20T20:16:41.829Z,11.02
2023-02-20T20:19:53.217Z,10.35
2023-02-20T20:23:02.354Z,10.48
2023-02-20T20:26:04.391Z,10.10
2023-02-20T20:29:06.183Z,12.63
2023-02-20T20:32:08.687Z,10.07
2023-02-20T20:35:10.524Z,10.90
2023-02-20T20:38:12.298Z,12.20
2023-02-20T20:41:14.351Z,12.13
2023-02-20T20:44:16.361Z,10.10
2023-02-20T20:47:17.717Z,11.07
2023-02-20T20:50:19.611Z,9.85
2023-02-20T20:53:21.590Z,10.85
2023-02-20T20:56:23.356Z,10.00
2023-02-20T20:59:25.714Z,13.67
2023-02-20T21:02:27.994Z,11.02
2023-02-20T21:05:29.757Z,10.27
2023-02-20T21:08:31.467Z,13.05
2023-02-20T21:11:35.281Z,11.25
2023-02-20T21:14:39.899Z,10.80
2023-02-20T21:17:42.073Z,11.90
2023-02-20T21:20:43.893Z,12.48
2023-02-20T21:23:45.415Z,13.23
2023-02-20T21:26:47.226Z,12.32
2023-02-20T21:29:48.662Z,12.77
2023-02-20T21:32:50.041Z,12.35
2023-02-20T21:35:51.718Z,11.35
2023-02-20T21:38:53.118Z,12.30
2023-02-20T21:41:54.429Z,13.15
2023-02-20T21:44:55.748Z,13.43
2023-02-20T21:47:57.044Z,11.15
2023-02-20T21:50:58.419Z,10.43
2023-02-20T21:54:00.021Z,11.68
2023-02-20T21:57:01.353Z,13.18
2023-02-20T22:00:02.682Z,13.00
2023-02-20T22:03:04.045Z,14.63
2023-02-20T22:06:05.365Z,12.65
2023-02-20T22:09:06.711Z,13.02
2023-02-20T22:12:08.054Z,13.20
2023-02-20T22:15:09.368Z,14.30
2023-02-20T22:18:10.679Z,13.55
2023-02-20T22:21:12.466Z,14.57
2023-02-20T22:24:13.916Z,12.00
2023-02-20T22:27:15.241Z,12.05
2023-02-20T22:30:16.571Z,13.43
2023-02-20T22:33:18.035Z,11.43
2023-02-20T22:36:19.353Z,12.45
2023-02-20T22:39:20.690Z,12.13
2023-02-20T22:42:29.581Z,12.82
2023-02-20T22:45:35.476Z,12.77
2023-02-20T22:48:36.781Z,12.63
2023-02-20T22:51:38.151Z,11.75
2023-02-20T22:54:39.534Z,12.30
2023-02-20T22:57:40.879Z,12.02
2023-02-20T23:00:42.263Z,11.47
2023-02-20T23:03:43.576Z,10.50
2023-02-20T23:06:44.899Z,11.05
2023-02-20T23:09:46.184Z,9.93
2023-02-20T23:12:47.504Z,10.80
2023-02-20T23:15:48.809Z,9.83
2023-02-20T23:18:50.097Z,10.32
2023-02-20T23:21:51.386Z,11.48
2023-02-20T23:24:52.678Z,11.10
2023-02-20T23:27:53.961Z,10.00
2023-02-20T23:30:55.275Z,9.97
2023-02-20T23:33:56.607Z,10.73
2023-02-20T23:36:57.903Z,9.80
2023-02-20T23:39:59.236Z,9.40
2023-02-20T23:43:00.530Z,10.50
2023-02-20T23:46:01.884Z,8.60
2023-02-20T23:49:03.249Z,9.70
2023-02-20T23:52:14.893Z,9.63
2023-02-20T23:55:17.593Z,8.25
2023-02-20T23:58:18.889Z,9.60
